sensor_id;sensor_type;location;lat;lon;timestamp;P1;durP1;ratioP1;P2;durP2;ratioP2
20294;SDS011;10306;52.128;5.208;2022-12-15T00:02:42;17.40;;;8.97;;
20294;SDS011;10306;52.128;5.208;2022-12-15T00:05:26;16.03;;;9.43;;
20294;SDS011;10306;52.128;5.208;2022-12-15T00:08:11;15.80;;;8.80;;
20294;SDS011;10306;52.128;5.208;2022-12-15T00:10:56;17.43;;;9.77;;
20294;SDS011;10306;52.128;5.208;2022-12-15T00:13:40;15.13;;;9.63;;
20294;SDS011;10306;52.128;5.208;2022-12-15T00:16:25;11.47;;;7.77;;
20294;SDS011;10306;52.128;5.208;2022-12-15T00:19:09;15.03;;;8.93;;
20294;SDS011;10306;52.128;5.208;2022-12-15T00:21:54;18.97;;;9.27;;
20294;SDS011;10306;52.128;5.208;2022-12-15T00:24:39;13.93;;;9.10;;
20294;SDS011;10306;52.128;5.208;2022-12-15T00:27:23;13.00;;;9.07;;
20294;SDS011;10306;52.128;5.208;2022-12-15T00:30:08;18.43;;;10.03;;
20294;SDS011;10306;52.128;5.208;2022-12-15T00:32:53;13.73;;;8.60;;
20294;SDS011;10306;52.128;5.208;2022-12-15T00:35:38;24.70;;;9.77;;
20294;SDS011;10306;52.128;5.208;2022-12-15T00:38:22;13.87;;;8.47;;
20294;SDS011;10306;52.128;5.208;2022-12-15T00:41:07;18.83;;;8.80;;
20294;SDS011;10306;52.128;5.208;2022-12-15T00:43:34;22.80;;;10.47;;
20294;SDS011;10306;52.128;5.208;2022-12-15T00:46:00;18.60;;;9.53;;
20294;SDS011;10306;52.128;5.208;2022-12-15T00:48:46;20.70;;;10.23;;
20294;SDS011;10306;52.128;5.208;2022-12-15T00:51:12;24.47;;;9.70;;
20294;SDS011;10306;52.128;5.208;2022-12-15T00:53:38;16.63;;;9.43;;
20294;SDS011;10306;52.128;5.208;2022-12-15T00:56:23;15.17;;;10.00;;
20294;SDS011;10306;52.128;5.208;2022-12-15T00:59:08;18.10;;;9.73;;
20294;SDS011;10306;52.128;5.208;2022-12-15T01:01:52;18.10;;;9.67;;
20294;SDS011;10306;52.128;5.208;2022-12-15T01:04:37;22.13;;;10.33;;
20294;SDS011;10306;52.128;5.208;2022-12-15T01:07:22;25.40;;;11.03;;
20294;SDS011;10306;52.128;5.208;2022-12-15T01:10:06;18.10;;;9.53;;
20294;SDS011;10306;52.128;5.208;2022-12-15T01:12:51;20.50;;;11.03;;
20294;SDS011;10306;52.128;5.208;2022-12-15T01:15:36;21.50;;;10.73;;
20294;SDS011;10306;52.128;5.208;2022-12-15T01:18:21;21.97;;;10.47;;
20294;SDS011;10306;52.128;5.208;2022-12-15T01:21:06;17.60;;;9.73;;
20294;SDS011;10306;52.128;5.208;2022-12-15T01:23:32;18.27;;;10.30;;
20294;SDS011;10306;52.128;5.208;2022-12-15T01:25:58;14.77;;;9.43;;
20294;SDS011;10306;52.128;5.208;2022-12-15T01:28:24;17.27;;;10.30;;
20294;SDS011;10306;52.128;5.208;2022-12-15T01:30:50;18.50;;;10.70;;
20294;SDS011;10306;52.128;5.208;2022-12-15T01:33:17;16.17;;;10.00;;
20294;SDS011;10306;52.128;5.208;2022-12-15T01:35:44;18.50;;;9.93;;
20294;SDS011;10306;52.128;5.208;2022-12-15T01:38:10;19.03;;;10.80;;
20294;SDS011;10306;52.128;5.208;2022-12-15T01:40:36;18.67;;;10.13;;
20294;SDS011;10306;52.128;5.208;2022-12-15T01:43:16;19.57;;;11.03;;
20294;SDS011;10306;52.128;5.208;2022-12-15T01:48:12;20.53;;;10.70;;
20294;SDS011;10306;52.128;5.208;2022-12-15T01:50:52;27.67;;;11.40;;
20294;SDS011;10306;52.128;5.208;2022-12-15T01:53:20;19.70;;;10.13;;
20294;SDS011;10306;52.128;5.208;2022-12-15T01:55:46;15.80;;;9.37;;
20294;SDS011;10306;52.128;5.208;2022-12-15T01:58:12;21.23;;;10.60;;
20294;SDS011;10306;52.128;5.208;2022-12-15T02:00:40;20.83;;;11.47;;
20294;SDS011;10306;52.128;5.208;2022-12-15T02:03:07;17.43;;;10.87;;
20294;SDS011;10306;52.128;5.208;2022-12-15T02:05:34;21.10;;;10.80;;
20294;SDS011;10306;52.128;5.208;2022-12-15T02:08:00;17.73;;;9.93;;
20294;SDS011;10306;52.128;5.208;2022-12-15T02:10:28;19.80;;;12.23;;
20294;SDS011;10306;52.128;5.208;2022-12-15T02:13:11;19.47;;;12.17;;
20294;SDS011;10306;52.128;5.208;2022-12-15T02:28:12;18.93;;;10.80;;
20294;SDS011;10306;52.128;5.208;2022-12-15T02:30:59;17.70;;;10.43;;
20294;SDS011;10306;52.128;5.208;2022-12-15T02:33:51;22.00;;;11.33;;
20294;SDS011;10306;52.128;5.208;2022-12-15T02:38:47;19.30;;;10.53;;
20294;SDS011;10306;52.128;5.208;2022-12-15T02:41:34;20.00;;;10.37;;
20294;SDS011;10306;52.128;5.208;2022-12-15T02:44:01;20.53;;;10.53;;
20294;SDS011;10306;52.128;5.208;2022-12-15T02:49:18;20.50;;;10.10;;
20294;SDS011;10306;52.128;5.208;2022-12-15T02:54:26;18.00;;;10.73;;
20294;SDS011;10306;52.128;5.208;2022-12-15T02:59:52;19.37;;;11.03;;
20294;SDS011;10306;52.128;5.208;2022-12-15T03:02:20;20.93;;;10.43;;
20294;SDS011;10306;52.128;5.208;2022-12-15T03:04:47;16.87;;;9.87;;
20294;SDS011;10306;52.128;5.208;2022-12-15T03:07:14;23.03;;;10.60;;
20294;SDS011;10306;52.128;5.208;2022-12-15T03:09:40;18.77;;;11.17;;
20294;SDS011;10306;52.128;5.208;2022-12-15T03:12:06;17.07;;;10.10;;
20294;SDS011;10306;52.128;5.208;2022-12-15T03:14:34;20.50;;;10.30;;
20294;SDS011;10306;52.128;5.208;2022-12-15T03:17:00;17.97;;;10.43;;
20294;SDS011;10306;52.128;5.208;2022-12-15T03:19:26;20.70;;;10.63;;
20294;SDS011;10306;52.128;5.208;2022-12-15T03:21:52;18.87;;;10.13;;
20294;SDS011;10306;52.128;5.208;2022-12-15T03:24:18;20.87;;;10.63;;
20294;SDS011;10306;52.128;5.208;2022-12-15T03:26:44;19.17;;;10.80;;
20294;SDS011;10306;52.128;5.208;2022-12-15T03:29:13;21.87;;;10.33;;
20294;SDS011;10306;52.128;5.208;2022-12-15T03:31:39;16.33;;;9.27;;
20294;SDS011;10306;52.128;5.208;2022-12-15T03:34:05;22.93;;;11.13;;
20294;SDS011;10306;52.128;5.208;2022-12-15T03:36:31;24.70;;;10.30;;
20294;SDS011;10306;52.128;5.208;2022-12-15T03:38:57;18.77;;;10.17;;
20294;SDS011;10306;52.128;5.208;2022-12-15T03:41:23;18.00;;;9.97;;
20294;SDS011;10306;52.128;5.208;2022-12-15T03:43:49;22.10;;;10.90;;
20294;SDS011;10306;52.128;5.208;2022-12-15T03:46:15;22.13;;;10.07;;
20294;SDS011;10306;52.128;5.208;2022-12-15T03:48:41;15.80;;;9.07;;
20294;SDS011;10306;52.128;5.208;2022-12-15T03:51:07;16.57;;;9.83;;
20294;SDS011;10306;52.128;5.208;2022-12-15T03:53:33;19.50;;;9.57;;
20294;SDS011;10306;52.128;5.208;2022-12-15T03:55:59;18.67;;;10.23;;
20294;SDS011;10306;52.128;5.208;2022-12-15T03:58:25;20.07;;;10.63;;
20294;SDS011;10306;52.128;5.208;2022-12-15T04:00:51;22.70;;;10.67;;
20294;SDS011;10306;52.128;5.208;2022-12-15T04:03:17;16.87;;;9.47;;
20294;SDS011;10306;52.128;5.208;2022-12-15T04:05:43;23.57;;;11.43;;
20294;SDS011;10306;52.128;5.208;2022-12-15T04:08:09;14.77;;;9.27;;
20294;SDS011;10306;52.128;5.208;2022-12-15T04:10:36;20.97;;;10.70;;
20294;SDS011;10306;52.128;5.208;2022-12-15T04:13:06;16.70;;;9.97;;
20294;SDS011;10306;52.128;5.208;2022-12-15T04:15:33;13.17;;;8.60;;
20294;SDS011;10306;52.128;5.208;2022-12-15T04:18:00;11.83;;;8.33;;
20294;SDS011;10306;52.128;5.208;2022-12-15T04:20:27;19.17;;;10.30;;
20294;SDS011;10306;52.128;5.208;2022-12-15T04:22:52;19.97;;;9.43;;
20294;SDS011;10306;52.128;5.208;2022-12-15T04:25:20;13.97;;;10.00;;
20294;SDS011;10306;52.128;5.208;2022-12-15T04:28:05;17.17;;;9.30;;
20294;SDS011;10306;52.128;5.208;2022-12-15T04:30:50;18.80;;;9.37;;
20294;SDS011;10306;52.128;5.208;2022-12-15T04:33:36;19.97;;;9.83;;
20294;SDS011;10306;52.128;5.208;2022-12-15T04:36:22;12.47;;;8.10;;
20294;SDS011;10306;52.128;5.208;2022-12-15T04:39:07;15.83;;;9.07;;
20294;SDS011;10306;52.128;5.208;2022-12-15T04:41:52;16.13;;;8.67;;
20294;SDS011;10306;52.128;5.208;2022-12-15T04:44:37;19.17;;;9.80;;
20294;SDS011;10306;52.128;5.208;2022-12-15T04:47:22;19.93;;;10.37;;
20294;SDS011;10306;52.128;5.208;2022-12-15T04:50:06;15.90;;;8.83;;
20294;SDS011;10306;52.128;5.208;2022-12-15T04:52:51;16.33;;;9.23;;
20294;SDS011;10306;52.128;5.208;2022-12-15T04:55:36;15.23;;;9.47;;
20294;SDS011;10306;52.128;5.208;2022-12-15T04:58:21;14.47;;;8.53;;
20294;SDS011;10306;52.128;5.208;2022-12-15T05:01:06;14.20;;;9.23;;
20294;SDS011;10306;52.128;5.208;2022-12-15T05:03:50;15.00;;;9.37;;
20294;SDS011;10306;52.128;5.208;2022-12-15T05:06:35;13.80;;;8.13;;
20294;SDS011;10306;52.128;5.208;2022-12-15T05:09:20;15.67;;;9.60;;
20294;SDS011;10306;52.128;5.208;2022-12-15T05:12:04;14.20;;;8.67;;
20294;SDS011;10306;52.128;5.208;2022-12-15T05:14:49;16.17;;;9.90;;
20294;SDS011;10306;52.128;5.208;2022-12-15T05:17:33;15.07;;;8.77;;
20294;SDS011;10306;52.128;5.208;2022-12-15T05:20:18;15.13;;;8.60;;
20294;SDS011;10306;52.128;5.208;2022-12-15T05:23:02;13.13;;;8.77;;
20294;SDS011;10306;52.128;5.208;2022-12-15T05:25:47;15.63;;;8.37;;
20294;SDS011;10306;52.128;5.208;2022-12-15T05:28:31;12.87;;;8.60;;
20294;SDS011;10306;52.128;5.208;2022-12-15T05:31:16;14.83;;;8.67;;
20294;SDS011;10306;52.128;5.208;2022-12-15T05:34:00;15.87;;;9.30;;
20294;SDS011;10306;52.128;5.208;2022-12-15T05:36:26;18.43;;;9.67;;
20294;SDS011;10306;52.128;5.208;2022-12-15T05:38:52;21.03;;;9.43;;
20294;SDS011;10306;52.128;5.208;2022-12-15T05:41:19;16.97;;;9.37;;
20294;SDS011;10306;52.128;5.208;2022-12-15T05:43:45;13.93;;;8.90;;
20294;SDS011;10306;52.128;5.208;2022-12-15T05:46:11;19.53;;;8.70;;
20294;SDS011;10306;52.128;5.208;2022-12-15T05:48:38;21.23;;;9.90;;
20294;SDS011;10306;52.128;5.208;2022-12-15T05:51:05;18.20;;;9.73;;
20294;SDS011;10306;52.128;5.208;2022-12-15T05:53:32;20.37;;;8.13;;
20294;SDS011;10306;52.128;5.208;2022-12-15T05:56:02;17.77;;;9.73;;
20294;SDS011;10306;52.128;5.208;2022-12-15T05:58:28;14.07;;;8.30;;
20294;SDS011;10306;52.128;5.208;2022-12-15T06:01:00;16.30;;;9.80;;
20294;SDS011;10306;52.128;5.208;2022-12-15T06:03:26;14.23;;;8.80;;
20294;SDS011;10306;52.128;5.208;2022-12-15T06:05:52;13.93;;;9.30;;
20294;SDS011;10306;52.128;5.208;2022-12-15T06:08:18;16.73;;;8.57;;
20294;SDS011;10306;52.128;5.208;2022-12-15T06:10:50;17.20;;;9.40;;
20294;SDS011;10306;52.128;5.208;2022-12-15T06:13:16;13.67;;;9.23;;
20294;SDS011;10306;52.128;5.208;2022-12-15T06:15:42;19.83;;;10.00;;
20294;SDS011;10306;52.128;5.208;2022-12-15T06:18:08;17.30;;;9.33;;
20294;SDS011;10306;52.128;5.208;2022-12-15T06:20:34;15.30;;;9.10;;
20294;SDS011;10306;52.128;5.208;2022-12-15T06:23:00;15.23;;;9.20;;
20294;SDS011;10306;52.128;5.208;2022-12-15T06:25:26;15.20;;;8.90;;
20294;SDS011;10306;52.128;5.208;2022-12-15T06:27:52;15.40;;;9.73;;
20294;SDS011;10306;52.128;5.208;2022-12-15T06:30:18;16.63;;;8.93;;
20294;SDS011;10306;52.128;5.208;2022-12-15T06:32:44;19.20;;;9.50;;
20294;SDS011;10306;52.128;5.208;2022-12-15T06:35:10;16.27;;;8.83;;
20294;SDS011;10306;52.128;5.208;2022-12-15T06:37:36;16.40;;;8.33;;
20294;SDS011;10306;52.128;5.208;2022-12-15T06:40:02;15.80;;;9.37;;
20294;SDS011;10306;52.128;5.208;2022-12-15T06:42:28;14.93;;;8.67;;
20294;SDS011;10306;52.128;5.208;2022-12-15T06:44:54;14.87;;;9.37;;
20294;SDS011;10306;52.128;5.208;2022-12-15T06:47:20;17.83;;;10.07;;
20294;SDS011;10306;52.128;5.208;2022-12-15T06:49:46;14.13;;;8.33;;
20294;SDS011;10306;52.128;5.208;2022-12-15T06:52:12;15.87;;;9.20;;
20294;SDS011;10306;52.128;5.208;2022-12-15T06:54:38;12.87;;;9.37;;
20294;SDS011;10306;52.128;5.208;2022-12-15T06:57:04;16.03;;;9.00;;
20294;SDS011;10306;52.128;5.208;2022-12-15T06:59:30;21.97;;;10.93;;
20294;SDS011;10306;52.128;5.208;2022-12-15T07:01:56;20.47;;;10.37;;
20294;SDS011;10306;52.128;5.208;2022-12-15T07:04:22;18.17;;;9.43;;
20294;SDS011;10306;52.128;5.208;2022-12-15T07:06:48;20.00;;;9.10;;
20294;SDS011;10306;52.128;5.208;2022-12-15T07:09:14;17.57;;;10.67;;
20294;SDS011;10306;52.128;5.208;2022-12-15T07:11:41;18.10;;;10.63;;
20294;SDS011;10306;52.128;5.208;2022-12-15T07:14:07;17.90;;;9.87;;
20294;SDS011;10306;52.128;5.208;2022-12-15T07:16:34;18.03;;;9.83;;
20294;SDS011;10306;52.128;5.208;2022-12-15T07:19:00;16.13;;;10.20;;
20294;SDS011;10306;52.128;5.208;2022-12-15T07:21:26;16.70;;;10.07;;
20294;SDS011;10306;52.128;5.208;2022-12-15T07:23:52;16.80;;;9.70;;
20294;SDS011;10306;52.128;5.208;2022-12-15T07:26:18;15.43;;;9.13;;
20294;SDS011;10306;52.128;5.208;2022-12-15T07:28:44;18.03;;;10.20;;
20294;SDS011;10306;52.128;5.208;2022-12-15T07:31:10;22.13;;;10.27;;
20294;SDS011;10306;52.128;5.208;2022-12-15T07:33:36;17.30;;;9.43;;
20294;SDS011;10306;52.128;5.208;2022-12-15T07:36:03;22.27;;;10.30;;
20294;SDS011;10306;52.128;5.208;2022-12-15T07:38:29;18.43;;;9.10;;
20294;SDS011;10306;52.128;5.208;2022-12-15T07:40:58;19.30;;;9.93;;
20294;SDS011;10306;52.128;5.208;2022-12-15T07:43:26;15.07;;;9.03;;
20294;SDS011;10306;52.128;5.208;2022-12-15T07:45:53;16.07;;;9.33;;
20294;SDS011;10306;52.128;5.208;2022-12-15T07:48:19;16.90;;;9.63;;
20294;SDS011;10306;52.128;5.208;2022-12-15T07:50:45;17.73;;;9.73;;
20294;SDS011;10306;52.128;5.208;2022-12-15T07:53:11;18.93;;;9.53;;
20294;SDS011;10306;52.128;5.208;2022-12-15T07:55:37;19.53;;;8.87;;
20294;SDS011;10306;52.128;5.208;2022-12-15T07:58:03;15.67;;;9.67;;
20294;SDS011;10306;52.128;5.208;2022-12-15T08:00:29;15.90;;;9.43;;
20294;SDS011;10306;52.128;5.208;2022-12-15T08:02:55;22.80;;;9.23;;
20294;SDS011;10306;52.128;5.208;2022-12-15T08:05:21;16.43;;;8.73;;
20294;SDS011;10306;52.128;5.208;2022-12-15T08:07:47;16.37;;;9.33;;
20294;SDS011;10306;52.128;5.208;2022-12-15T08:10:13;15.63;;;9.50;;
20294;SDS011;10306;52.128;5.208;2022-12-15T08:12:39;18.07;;;9.83;;
20294;SDS011;10306;52.128;5.208;2022-12-15T08:15:05;19.63;;;10.03;;
20294;SDS011;10306;52.128;5.208;2022-12-15T08:17:31;13.00;;;8.67;;
20294;SDS011;10306;52.128;5.208;2022-12-15T08:19:57;18.10;;;10.53;;
20294;SDS011;10306;52.128;5.208;2022-12-15T08:22:23;18.30;;;9.20;;
20294;SDS011;10306;52.128;5.208;2022-12-15T08:24:49;16.63;;;10.00;;
20294;SDS011;10306;52.128;5.208;2022-12-15T08:27:15;16.83;;;9.13;;
20294;SDS011;10306;52.128;5.208;2022-12-15T08:29:41;16.17;;;8.83;;
20294;SDS011;10306;52.128;5.208;2022-12-15T08:32:07;18.00;;;10.37;;
20294;SDS011;10306;52.128;5.208;2022-12-15T08:34:33;17.77;;;10.20;;
20294;SDS011;10306;52.128;5.208;2022-12-15T08:36:59;18.77;;;10.33;;
20294;SDS011;10306;52.128;5.208;2022-12-15T08:39:25;21.53;;;10.40;;
20294;SDS011;10306;52.128;5.208;2022-12-15T08:41:52;17.43;;;9.60;;
20294;SDS011;10306;52.128;5.208;2022-12-15T08:44:18;17.53;;;9.63;;
20294;SDS011;10306;52.128;5.208;2022-12-15T08:46:44;23.27;;;11.27;;
20294;SDS011;10306;52.128;5.208;2022-12-15T08:49:09;18.80;;;10.27;;
20294;SDS011;10306;52.128;5.208;2022-12-15T08:51:35;19.77;;;11.20;;
20294;SDS011;10306;52.128;5.208;2022-12-15T08:54:01;19.17;;;10.83;;
20294;SDS011;10306;52.128;5.208;2022-12-15T08:56:28;18.13;;;10.97;;
20294;SDS011;10306;52.128;5.208;2022-12-15T08:58:55;20.67;;;9.40;;
20294;SDS011;10306;52.128;5.208;2022-12-15T09:01:22;22.47;;;11.53;;
20294;SDS011;10306;52.128;5.208;2022-12-15T09:03:48;23.63;;;11.30;;
20294;SDS011;10306;52.128;5.208;2022-12-15T09:06:18;22.03;;;11.83;;
20294;SDS011;10306;52.128;5.208;2022-12-15T09:08:44;18.60;;;9.80;;
20294;SDS011;10306;52.128;5.208;2022-12-15T09:11:10;18.83;;;10.93;;
20294;SDS011;10306;52.128;5.208;2022-12-15T09:13:37;21.30;;;10.67;;
20294;SDS011;10306;52.128;5.208;2022-12-15T09:16:04;21.63;;;11.70;;
20294;SDS011;10306;52.128;5.208;2022-12-15T09:18:30;26.70;;;12.53;;
20294;SDS011;10306;52.128;5.208;2022-12-15T09:21:01;24.17;;;13.37;;
20294;SDS011;10306;52.128;5.208;2022-12-15T09:23:27;30.27;;;13.63;;
20294;SDS011;10306;52.128;5.208;2022-12-15T09:26:00;26.10;;;12.83;;
20294;SDS011;10306;52.128;5.208;2022-12-15T09:28:27;25.13;;;13.60;;
20294;SDS011;10306;52.128;5.208;2022-12-15T09:30:53;22.93;;;12.53;;
20294;SDS011;10306;52.128;5.208;2022-12-15T09:33:19;24.57;;;13.07;;
20294;SDS011;10306;52.128;5.208;2022-12-15T09:35:49;26.00;;;12.30;;
20294;SDS011;10306;52.128;5.208;2022-12-15T09:38:15;25.10;;;12.83;;
20294;SDS011;10306;52.128;5.208;2022-12-15T09:40:41;20.37;;;13.57;;
20294;SDS011;10306;52.128;5.208;2022-12-15T09:43:07;27.47;;;13.20;;
20294;SDS011;10306;52.128;5.208;2022-12-15T09:45:38;24.47;;;13.00;;
20294;SDS011;10306;52.128;5.208;2022-12-15T09:48:09;24.00;;;13.73;;
20294;SDS011;10306;52.128;5.208;2022-12-15T09:50:38;33.50;;;15.20;;
20294;SDS011;10306;52.128;5.208;2022-12-15T09:53:08;24.80;;;15.23;;
20294;SDS011;10306;52.128;5.208;2022-12-15T09:55:35;23.50;;;14.80;;
20294;SDS011;10306;52.128;5.208;2022-12-15T10:00:47;29.97;;;16.97;;
20294;SDS011;10306;52.128;5.208;2022-12-15T10:08:48;36.97;;;17.07;;
20294;SDS011;10306;52.128;5.208;2022-12-15T10:14:09;30.53;;;15.80;;
20294;SDS011;10306;52.128;5.208;2022-12-15T10:21:38;29.57;;;16.57;;
20294;SDS011;10306;52.128;5.208;2022-12-15T10:24:18;30.90;;;17.23;;
20294;SDS011;10306;52.128;5.208;2022-12-15T10:26:47;35.13;;;19.17;;
20294;SDS011;10306;52.128;5.208;2022-12-15T10:32:17;28.80;;;17.50;;
20294;SDS011;10306;52.128;5.208;2022-12-15T10:34:43;33.23;;;17.67;;
20294;SDS011;10306;52.128;5.208;2022-12-15T10:37:16;37.10;;;19.37;;
20294;SDS011;10306;52.128;5.208;2022-12-15T10:39:44;38.30;;;20.10;;
20294;SDS011;10306;52.128;5.208;2022-12-15T10:42:12;35.13;;;17.90;;
20294;SDS011;10306;52.128;5.208;2022-12-15T10:44:39;36.83;;;19.80;;
20294;SDS011;10306;52.128;5.208;2022-12-15T10:47:48;40.23;;;19.13;;
20294;SDS011;10306;52.128;5.208;2022-12-15T10:50:14;31.93;;;18.83;;
20294;SDS011;10306;52.128;5.208;2022-12-15T10:52:41;41.90;;;19.77;;
20294;SDS011;10306;52.128;5.208;2022-12-15T10:57:58;35.77;;;19.07;;
20294;SDS011;10306;52.128;5.208;2022-12-15T11:02:51;30.43;;;18.13;;
20294;SDS011;10306;52.128;5.208;2022-12-15T11:05:18;35.57;;;18.63;;
20294;SDS011;10306;52.128;5.208;2022-12-15T11:07:54;35.43;;;18.83;;
20294;SDS011;10306;52.128;5.208;2022-12-15T11:10:24;32.10;;;17.97;;
20294;SDS011;10306;52.128;5.208;2022-12-15T11:13:12;32.57;;;18.97;;
20294;SDS011;10306;52.128;5.208;2022-12-15T11:15:39;34.17;;;17.67;;
20294;SDS011;10306;52.128;5.208;2022-12-15T11:18:17;31.53;;;18.17;;
20294;SDS011;10306;52.128;5.208;2022-12-15T11:21:30;31.03;;;18.53;;
20294;SDS011;10306;52.128;5.208;2022-12-15T11:26:19;29.90;;;17.80;;
20294;SDS011;10306;52.128;5.208;2022-12-15T11:28:49;33.53;;;19.23;;
20294;SDS011;10306;52.128;5.208;2022-12-15T11:31:30;32.93;;;19.10;;
20294;SDS011;10306;52.128;5.208;2022-12-15T11:33:57;31.77;;;18.87;;
20294;SDS011;10306;52.128;5.208;2022-12-15T11:39:12;37.30;;;19.63;;
20294;SDS011;10306;52.128;5.208;2022-12-15T11:47:06;30.90;;;18.80;;
20294;SDS011;10306;52.128;5.208;2022-12-15T11:52:27;32.90;;;18.27;;
20294;SDS011;10306;52.128;5.208;2022-12-15T11:55:02;30.43;;;18.23;;
20294;SDS011;10306;52.128;5.208;2022-12-15T12:00:17;31.27;;;18.80;;
20294;SDS011;10306;52.128;5.208;2022-12-15T12:02:54;27.70;;;17.03;;
20294;SDS011;10306;52.128;5.208;2022-12-15T12:08:22;32.13;;;17.70;;
20294;SDS011;10306;52.128;5.208;2022-12-15T12:11:36;30.40;;;18.50;;
20294;SDS011;10306;52.128;5.208;2022-12-15T12:18:35;32.23;;;18.53;;
20294;SDS011;10306;52.128;5.208;2022-12-15T12:26:03;28.90;;;18.87;;
20294;SDS011;10306;52.128;5.208;2022-12-15T12:29:14;32.93;;;19.27;;
20294;SDS011;10306;52.128;5.208;2022-12-15T12:34:01;31.17;;;18.10;;
20294;SDS011;10306;52.128;5.208;2022-12-15T12:36:28;32.63;;;17.93;;
20294;SDS011;10306;52.128;5.208;2022-12-15T12:38:54;33.87;;;19.57;;
20294;SDS011;10306;52.128;5.208;2022-12-15T12:43:51;26.07;;;17.53;;
20294;SDS011;10306;52.128;5.208;2022-12-15T12:46:21;29.23;;;18.73;;
20294;SDS011;10306;52.128;5.208;2022-12-15T12:51:23;26.83;;;16.80;;
20294;SDS011;10306;52.128;5.208;2022-12-15T12:53:49;29.67;;;17.03;;
20294;SDS011;10306;52.128;5.208;2022-12-15T12:58:54;22.67;;;16.27;;
20294;SDS011;10306;52.128;5.208;2022-12-15T13:03:46;25.77;;;16.07;;
20294;SDS011;10306;52.128;5.208;2022-12-15T13:09:19;27.20;;;16.60;;
20294;SDS011;10306;52.128;5.208;2022-12-15T13:14:22;24.40;;;15.57;;
20294;SDS011;10306;52.128;5.208;2022-12-15T13:16:54;26.07;;;16.83;;
20294;SDS011;10306;52.128;5.208;2022-12-15T13:22:21;27.90;;;17.03;;
20294;SDS011;10306;52.128;5.208;2022-12-15T13:24:47;25.47;;;16.57;;
20294;SDS011;10306;52.128;5.208;2022-12-15T13:27:15;26.00;;;16.13;;
20294;SDS011;10306;52.128;5.208;2022-12-15T13:30:00;24.07;;;17.27;;
20294;SDS011;10306;52.128;5.208;2022-12-15T13:32:31;26.07;;;17.00;;
20294;SDS011;10306;52.128;5.208;2022-12-15T13:34:59;26.03;;;16.50;;
20294;SDS011;10306;52.128;5.208;2022-12-15T13:40:57;27.13;;;18.13;;
20294;SDS011;10306;52.128;5.208;2022-12-15T13:50:55;21.13;;;16.30;;
20294;SDS011;10306;52.128;5.208;2022-12-15T13:53:23;24.47;;;16.70;;
20294;SDS011;10306;52.128;5.208;2022-12-15T13:55:56;23.27;;;16.17;;
20294;SDS011;10306;52.128;5.208;2022-12-15T13:58:23;21.77;;;15.60;;
20294;SDS011;10306;52.128;5.208;2022-12-15T14:00:54;18.73;;;15.03;;
20294;SDS011;10306;52.128;5.208;2022-12-15T14:03:21;18.50;;;15.13;;
20294;SDS011;10306;52.128;5.208;2022-12-15T14:05:48;23.30;;;14.67;;
20294;SDS011;10306;52.128;5.208;2022-12-15T14:08:14;19.17;;;14.70;;
20294;SDS011;10306;52.128;5.208;2022-12-15T14:10:42;19.47;;;14.73;;
20294;SDS011;10306;52.128;5.208;2022-12-15T14:18:43;16.27;;;13.13;;
20294;SDS011;10306;52.128;5.208;2022-12-15T14:21:20;17.23;;;13.53;;
20294;SDS011;10306;52.128;5.208;2022-12-15T14:23:46;17.77;;;13.70;;
20294;SDS011;10306;52.128;5.208;2022-12-15T14:26:13;17.13;;;12.93;;
20294;SDS011;10306;52.128;5.208;2022-12-15T14:28:40;19.70;;;13.90;;
20294;SDS011;10306;52.128;5.208;2022-12-15T14:33:42;19.50;;;13.83;;
20294;SDS011;10306;52.128;5.208;2022-12-15T14:36:09;22.37;;;13.97;;
20294;SDS011;10306;52.128;5.208;2022-12-15T14:41:02;22.67;;;13.73;;
20294;SDS011;10306;52.128;5.208;2022-12-15T14:43:31;20.67;;;14.13;;
20294;SDS011;10306;52.128;5.208;2022-12-15T14:46:11;22.80;;;15.00;;
20294;SDS011;10306;52.128;5.208;2022-12-15T14:48:41;23.07;;;14.90;;
20294;SDS011;10306;52.128;5.208;2022-12-15T14:51:09;22.33;;;14.77;;
20294;SDS011;10306;52.128;5.208;2022-12-15T14:53:36;23.57;;;14.77;;
20294;SDS011;10306;52.128;5.208;2022-12-15T14:58:38;22.43;;;14.60;;
20294;SDS011;10306;52.128;5.208;2022-12-15T15:01:19;25.07;;;15.83;;
20294;SDS011;10306;52.128;5.208;2022-12-15T15:03:46;28.67;;;16.27;;
20294;SDS011;10306;52.128;5.208;2022-12-15T15:06:20;25.70;;;16.03;;
20294;SDS011;10306;52.128;5.208;2022-12-15T15:08:51;24.63;;;16.03;;
20294;SDS011;10306;52.128;5.208;2022-12-15T15:14:16;29.20;;;16.50;;
20294;SDS011;10306;52.128;5.208;2022-12-15T15:16:39;28.77;;;17.40;;
20294;SDS011;10306;52.128;5.208;2022-12-15T15:19:06;26.87;;;16.53;;
20294;SDS011;10306;52.128;5.208;2022-12-15T15:21:35;26.43;;;16.70;;
20294;SDS011;10306;52.128;5.208;2022-12-15T15:26:36;28.87;;;17.23;;
20294;SDS011;10306;52.128;5.208;2022-12-15T15:29:27;28.27;;;16.83;;
20294;SDS011;10306;52.128;5.208;2022-12-15T15:31:51;26.20;;;16.83;;
20294;SDS011;10306;52.128;5.208;2022-12-15T15:34:17;30.00;;;18.50;;
20294;SDS011;10306;52.128;5.208;2022-12-15T15:36:43;34.67;;;19.03;;
20294;SDS011;10306;52.128;5.208;2022-12-15T15:39:11;28.60;;;18.27;;
20294;SDS011;10306;52.128;5.208;2022-12-15T15:41:39;29.63;;;18.67;;
20294;SDS011;10306;52.128;5.208;2022-12-15T15:44:08;33.00;;;18.23;;
20294;SDS011;10306;52.128;5.208;2022-12-15T15:46:36;29.60;;;17.63;;
20294;SDS011;10306;52.128;5.208;2022-12-15T15:49:04;27.20;;;17.20;;
20294;SDS011;10306;52.128;5.208;2022-12-15T15:51:32;28.87;;;16.83;;
20294;SDS011;10306;52.128;5.208;2022-12-15T15:53:59;28.40;;;16.80;;
20294;SDS011;10306;52.128;5.208;2022-12-15T15:56:26;33.00;;;18.50;;
20294;SDS011;10306;52.128;5.208;2022-12-15T15:58:54;30.47;;;17.97;;
20294;SDS011;10306;52.128;5.208;2022-12-15T16:01:21;32.70;;;17.63;;
20294;SDS011;10306;52.128;5.208;2022-12-15T16:03:46;30.50;;;19.10;;
20294;SDS011;10306;52.128;5.208;2022-12-15T16:06:17;30.87;;;17.97;;
20294;SDS011;10306;52.128;5.208;2022-12-15T16:08:44;36.23;;;19.90;;
20294;SDS011;10306;52.128;5.208;2022-12-15T16:11:11;32.53;;;19.40;;
20294;SDS011;10306;52.128;5.208;2022-12-15T16:13:37;34.73;;;21.30;;
20294;SDS011;10306;52.128;5.208;2022-12-15T16:16:03;34.97;;;20.00;;
20294;SDS011;10306;52.128;5.208;2022-12-15T16:18:29;31.80;;;20.23;;
20294;SDS011;10306;52.128;5.208;2022-12-15T16:20:56;37.30;;;21.47;;
20294;SDS011;10306;52.128;5.208;2022-12-15T16:23:23;39.50;;;22.53;;
20294;SDS011;10306;52.128;5.208;2022-12-15T16:25:51;39.63;;;22.47;;
20294;SDS011;10306;52.128;5.208;2022-12-15T16:28:18;38.97;;;21.90;;
20294;SDS011;10306;52.128;5.208;2022-12-15T16:30:45;37.93;;;21.20;;
20294;SDS011;10306;52.128;5.208;2022-12-15T16:33:11;44.43;;;25.73;;
20294;SDS011;10306;52.128;5.208;2022-12-15T16:35:37;43.33;;;23.57;;
20294;SDS011;10306;52.128;5.208;2022-12-15T16:38:04;47.43;;;26.57;;
20294;SDS011;10306;52.128;5.208;2022-12-15T16:40:30;45.17;;;25.17;;
20294;SDS011;10306;52.128;5.208;2022-12-15T16:43:01;41.67;;;25.03;;
20294;SDS011;10306;52.128;5.208;2022-12-15T16:45:28;41.37;;;24.33;;
20294;SDS011;10306;52.128;5.208;2022-12-15T16:47:54;40.63;;;23.63;;
20294;SDS011;10306;52.128;5.208;2022-12-15T16:50:23;40.50;;;23.87;;
20294;SDS011;10306;52.128;5.208;2022-12-15T16:52:50;40.37;;;23.10;;
20294;SDS011;10306;52.128;5.208;2022-12-15T16:55:18;36.97;;;23.17;;
20294;SDS011;10306;52.128;5.208;2022-12-15T16:57:44;39.60;;;23.20;;